createdAt,value
2024-02-06T00:02:02.830Z,5.30
2024-02-06T00:04:30.108Z,5.30
2024-02-06T00:06:57.382Z,5.30
2024-02-06T00:09:24.381Z,5.30
2024-02-06T00:11:51.578Z,5.30
2024-02-06T00:14:18.651Z,5.40
2024-02-06T00:16:47.389Z,5.40
2024-02-06T00:19:14.713Z,5.30
2024-02-06T00:21:41.798Z,5.30
2024-02-06T00:24:08.960Z,5.30
2024-02-06T00:26:36.030Z,5.20
2024-02-06T00:29:03.132Z,5.20
2024-02-06T00:31:30.266Z,5.20
2024-02-06T00:33:57.413Z,5.20
2024-02-06T00:36:24.476Z,5.10
2024-02-06T00:38:51.634Z,5.10
2024-02-06T00:41:18.746Z,5.10
2024-02-06T00:43:45.908Z,5.10
2024-02-06T00:46:13.012Z,5.00
2024-02-06T00:48:40.225Z,5.10
2024-02-06T00:51:10.153Z,5.00
2024-02-06T00:53:37.366Z,5.00
2024-02-06T00:56:07.721Z,5.00
2024-02-06T00:58:34.906Z,5.00
2024-02-06T01:01:02.375Z,4.90
2024-02-06T01:03:29.590Z,4.90
2024-02-06T01:05:56.680Z,4.90
2024-02-06T01:08:23.801Z,4.90
2024-02-06T01:10:50.866Z,4.90
2024-02-06T01:13:17.900Z,4.90
2024-02-06T01:15:45.103Z,4.90
2024-02-06T01:18:12.284Z,4.90
2024-02-06T01:20:39.394Z,4.90
2024-02-06T01:23:06.516Z,5.00
2024-02-06T01:25:33.582Z,5.00
2024-02-06T01:28:00.730Z,5.00
2024-02-06T01:30:29.209Z,5.00
2024-02-06T01:32:56.859Z,5.10
2024-02-06T01:35:24.234Z,5.10
2024-02-06T01:37:51.382Z,5.10
2024-02-06T01:40:18.967Z,5.10
2024-02-06T01:42:46.144Z,5.10
2024-02-06T01:45:13.213Z,5.10
2024-02-06T01:47:40.852Z,5.10
2024-02-06T01:50:08.325Z,5.00
2024-02-06T01:52:36.125Z,5.00
2024-02-06T01:55:03.712Z,5.00
2024-02-06T01:57:33.493Z,5.00
2024-02-06T02:00:01.420Z,5.00
2024-02-06T02:02:28.583Z,4.90
2024-02-06T02:04:55.894Z,5.00
2024-02-06T02:07:23.164Z,5.00
2024-02-06T02:09:50.261Z,4.90
2024-02-06T02:12:17.238Z,4.90
2024-02-06T02:14:44.301Z,4.90
2024-02-06T02:17:11.291Z,4.90
2024-02-06T02:19:38.425Z,4.80
2024-02-06T02:22:05.566Z,4.80
2024-02-06T02:24:32.690Z,4.80
2024-02-06T02:27:00.524Z,4.80
2024-02-06T02:29:28.208Z,4.80
2024-02-06T02:31:55.969Z,4.80
2024-02-06T02:34:23.259Z,4.80
2024-02-06T02:36:50.307Z,4.80
2024-02-06T02:39:17.358Z,4.80
2024-02-06T02:41:44.384Z,4.80
2024-02-06T02:44:11.482Z,4.70
2024-02-06T02:46:38.600Z,4.70
2024-02-06T02:49:05.790Z,4.70
2024-02-06T02:51:34.117Z,4.70
2024-02-06T02:54:01.213Z,4.70
2024-02-06T02:56:28.304Z,4.70
2024-02-06T02:58:55.376Z,4.60
2024-02-06T03:01:22.440Z,4.60
2024-02-06T03:03:49.470Z,4.60
2024-02-06T03:06:20.574Z,4.60
2024-02-06T03:08:47.806Z,4.50
2024-02-06T03:11:14.861Z,4.50
2024-02-06T03:13:43.475Z,4.50
2024-02-06T03:16:10.912Z,4.50
2024-02-06T03:18:38.878Z,4.50
2024-02-06T03:21:06.581Z,4.50
2024-02-06T03:23:33.606Z,4.40
2024-02-06T03:26:00.583Z,4.40
2024-02-06T03:28:28.138Z,4.40
2024-02-06T03:30:55.551Z,4.40
2024-02-06T03:33:22.678Z,4.40
2024-02-06T03:35:49.724Z,4.40
2024-02-06T03:38:19.196Z,4.40
2024-02-06T03:40:46.187Z,4.40
2024-02-06T03:43:13.283Z,4.30
2024-02-06T03:45:40.533Z,4.30
2024-02-06T03:48:08.007Z,4.30
2024-02-06T03:50:35.066Z,4.20
2024-02-06T03:53:03.025Z,4.20
2024-02-06T03:55:30.106Z,4.10
2024-02-06T03:57:57.224Z,4.10
2024-02-06T04:00:24.508Z,4.10
2024-02-06T04:02:51.532Z,4.10
2024-02-06T04:05:18.524Z,4.00
2024-02-06T04:07:45.618Z,4.00
2024-02-06T04:10:12.830Z,4.00
2024-02-06T04:12:39.911Z,3.90
2024-02-06T04:15:09.519Z,3.90
2024-02-06T04:17:36.824Z,3.90
2024-02-06T04:20:04.223Z,3.90
2024-02-06T04:22:31.402Z,3.90
2024-02-06T04:24:58.467Z,3.90
2024-02-06T04:27:25.488Z,3.80
2024-02-06T04:29:52.414Z,3.80
2024-02-06T04:32:19.880Z,3.80
2024-02-06T04:34:47.248Z,3.80
2024-02-06T04:37:15.203Z,3.80
2024-02-06T04:39:42.547Z,3.80
2024-02-06T04:42:09.742Z,3.80
2024-02-06T04:44:37.521Z,3.80
2024-02-06T04:47:05.387Z,3.80
2024-02-06T04:49:33.376Z,3.80
2024-02-06T04:52:00.829Z,3.80
2024-02-06T04:54:28.225Z,3.80
2024-02-06T04:56:55.628Z,3.80
2024-02-06T04:59:23.960Z,3.80
2024-02-06T05:01:51.204Z,3.80
2024-02-06T05:04:18.710Z,3.80
2024-02-06T05:06:47.361Z,3.80
2024-02-06T05:09:15.277Z,3.80
2024-02-06T05:11:43.259Z,3.80
2024-02-06T05:14:10.422Z,3.80
2024-02-06T05:16:37.944Z,3.80
2024-02-06T05:19:05.249Z,3.80
2024-02-06T05:21:32.613Z,3.80
2024-02-06T05:24:00.087Z,3.80
2024-02-06T05:26:27.516Z,3.80
2024-02-06T05:28:54.635Z,3.80
2024-02-06T05:31:21.880Z,3.80
2024-02-06T05:33:49.273Z,3.80
2024-02-06T05:36:16.554Z,3.80
2024-02-06T05:38:44.043Z,3.80
2024-02-06T05:41:14.472Z,3.80
2024-02-06T05:43:41.945Z,3.70
2024-02-06T05:46:10.195Z,3.70
2024-02-06T05:48:40.706Z,3.70
2024-02-06T05:51:10.025Z,3.70
2024-02-06T05:53:37.311Z,3.70
2024-02-06T05:56:06.261Z,3.70
2024-02-06T05:58:34.005Z,3.70
2024-02-06T06:01:01.715Z,3.70
2024-02-06T06:03:29.247Z,3.70
2024-02-06T06:05:58.090Z,3.60
2024-02-06T06:08:25.405Z,3.60
2024-02-06T06:10:52.841Z,3.60
2024-02-06T06:13:20.418Z,3.70
2024-02-06T06:15:48.070Z,3.60
2024-02-06T06:18:16.467Z,3.70
2024-02-06T06:20:44.397Z,3.60
2024-02-06T06:23:12.424Z,3.60
2024-02-06T06:25:41.032Z,3.60
2024-02-06T06:28:09.552Z,3.60
2024-02-06T06:30:37.151Z,3.60
2024-02-06T06:33:05.339Z,3.60
2024-02-06T06:35:32.892Z,3.60
2024-02-06T06:38:00.556Z,3.60
2024-02-06T06:40:28.503Z,3.70
2024-02-06T06:42:56.187Z,3.70
2024-02-06T06:45:23.880Z,3.70
2024-02-06T06:47:51.674Z,3.70
2024-02-06T06:50:19.507Z,3.70
2024-02-06T06:52:47.527Z,3.70
2024-02-06T06:55:14.778Z,3.70
2024-02-06T06:57:44.926Z,3.80
2024-02-06T07:00:14.169Z,3.80
2024-02-06T07:02:42.107Z,3.80
2024-02-06T07:05:13.491Z,3.90
2024-02-06T07:07:41.267Z,3.90
2024-02-06T07:10:09.579Z,3.90
2024-02-06T07:12:37.306Z,3.90
2024-02-06T07:15:05.368Z,3.90
2024-02-06T07:17:33.296Z,3.90
2024-02-06T07:20:01.307Z,3.90
2024-02-06T07:22:29.272Z,3.90
2024-02-06T07:24:57.172Z,4.00
2024-02-06T07:27:25.472Z,4.00
2024-02-06T07:29:53.408Z,4.00
2024-02-06T07:32:20.803Z,4.10
2024-02-06T07:34:48.914Z,4.10
2024-02-06T07:37:16.959Z,4.20
2024-02-06T07:39:44.626Z,4.20
2024-02-06T07:42:13.072Z,4.20
2024-02-06T07:44:40.902Z,4.30
2024-02-06T07:47:09.063Z,4.40
2024-02-06T07:49:37.046Z,4.40
2024-02-06T07:52:06.935Z,4.50
2024-02-06T07:54:34.949Z,4.60
2024-02-06T07:57:02.886Z,4.60
2024-02-06T07:59:30.760Z,4.70
2024-02-06T08:01:58.772Z,4.80
2024-02-06T08:04:26.507Z,4.80
2024-02-06T08:06:54.201Z,4.90
2024-02-06T08:09:21.940Z,5.00
2024-02-06T08:11:49.817Z,5.10
2024-02-06T08:14:18.273Z,5.10
2024-02-06T08:16:46.562Z,5.20
2024-02-06T08:19:15.331Z,5.30
2024-02-06T08:21:42.700Z,5.40
2024-02-06T08:24:11.491Z,5.50
2024-02-06T08:26:40.078Z,5.60
2024-02-06T08:29:07.709Z,5.70
2024-02-06T08:31:35.816Z,5.70
2024-02-06T08:34:03.489Z,5.90
2024-02-06T08:36:31.058Z,6.00
2024-02-06T08:38:59.334Z,6.10
2024-02-06T08:41:30.633Z,6.20
2024-02-06T08:43:58.665Z,6.30
2024-02-06T08:46:29.826Z,6.50
2024-02-06T08:48:57.887Z,6.70
2024-02-06T08:51:25.696Z,6.80
2024-02-06T08:53:54.728Z,7.00
2024-02-06T08:56:23.485Z,7.20
2024-02-06T08:58:51.587Z,7.30
2024-02-06T09:01:19.748Z,7.40
2024-02-06T09:03:48.752Z,7.60
2024-02-06T09:06:16.518Z,7.70
2024-02-06T09:08:44.913Z,7.80
2024-02-06T09:11:13.009Z,7.90
2024-02-06T09:13:40.281Z,8.00
2024-02-06T09:16:10.774Z,8.00
2024-02-06T09:18:38.552Z,8.10
2024-02-06T09:21:07.498Z,8.20
2024-02-06T09:23:36.152Z,8.40
2024-02-06T09:26:04.215Z,8.50
2024-02-06T09:28:32.109Z,8.70
2024-02-06T09:30:59.568Z,8.90
2024-02-06T09:33:27.429Z,9.00
2024-02-06T09:35:54.547Z,9.10
2024-02-06T09:38:22.326Z,9.30
2024-02-06T09:40:51.912Z,9.40
2024-02-06T09:43:20.636Z,9.60
2024-02-06T09:45:48.379Z,9.70
2024-02-06T09:48:16.452Z,9.90
2024-02-06T09:50:45.042Z,10.00
2024-02-06T09:53:14.353Z,10.20
2024-02-06T09:55:49.126Z,10.30
2024-02-06T09:58:18.087Z,10.40
2024-02-06T10:00:48.991Z,10.50
2024-02-06T10:03:31.758Z,10.60
2024-02-06T10:06:09.012Z,10.70
2024-02-06T10:08:37.446Z,10.90
2024-02-06T10:11:07.897Z,11.00
2024-02-06T10:13:37.151Z,11.10
2024-02-06T10:16:04.725Z,11.30
2024-02-06T10:18:33.221Z,11.40
2024-02-06T10:21:01.271Z,11.50
2024-02-06T10:23:29.160Z,11.50
2024-02-06T10:26:04.844Z,11.60
2024-02-06T10:28:32.697Z,11.80
2024-02-06T10:31:00.760Z,11.80
2024-02-06T10:33:31.075Z,12.00
2024-02-06T10:36:02.754Z,12.00
2024-02-06T10:38:31.182Z,12.10
2024-02-06T10:41:09.555Z,12.20
2024-02-06T10:43:47.405Z,12.30
2024-02-06T10:46:23.613Z,12.50
2024-02-06T10:48:54.437Z,12.50
2024-02-06T10:51:29.431Z,12.60
2024-02-06T10:53:58.803Z,12.60
2024-02-06T10:56:27.890Z,12.70
2024-02-06T10:58:59.544Z,12.70
2024-02-06T11:01:38.454Z,12.80
2024-02-06T11:04:11.588Z,12.90
2024-02-06T11:06:54.198Z,12.90
2024-02-06T11:09:29.287Z,12.90
2024-02-06T11:11:59.860Z,12.90
2024-02-06T11:14:29.646Z,13.00
2024-02-06T11:17:00.698Z,13.10
2024-02-06T11:19:47.305Z,13.10
2024-02-06T11:22:26.056Z,13.20
2024-02-06T11:24:55.465Z,13.30
2024-02-06T11:27:23.593Z,13.30
2024-02-06T11:29:52.308Z,13.40
2024-02-06T11:32:20.211Z,13.50
2024-02-06T11:34:56.894Z,13.50
2024-02-06T11:37:28.979Z,13.60
2024-02-06T11:40:17.020Z,13.70
2024-02-06T11:42:45.215Z,13.70
2024-02-06T11:45:20.306Z,13.80
2024-02-06T11:47:59.362Z,13.90
2024-02-06T11:50:37.381Z,13.90
2024-02-06T11:53:16.659Z,14.00
2024-02-06T11:55:45.609Z,14.00
2024-02-06T11:58:14.789Z,14.10
2024-02-06T12:00:42.876Z,14.10
2024-02-06T12:03:13.668Z,14.20
2024-02-06T12:05:44.111Z,14.20
2024-02-06T12:08:22.490Z,14.30
2024-02-06T12:10:51.386Z,14.40
2024-02-06T12:13:23.677Z,14.40
2024-02-06T12:15:52.129Z,14.50
2024-02-06T12:18:21.965Z,14.60
2024-02-06T12:20:50.193Z,14.70
2024-02-06T12:23:18.406Z,14.70
2024-02-06T12:25:50.672Z,14.80
2024-02-06T12:28:18.801Z,14.80
2024-02-06T12:30:51.949Z,14.80
2024-02-06T12:33:21.040Z,14.80
2024-02-06T12:35:49.091Z,14.90
2024-02-06T12:38:20.586Z,14.90
2024-02-06T12:40:48.164Z,15.00
2024-02-06T12:43:18.117Z,15.10
2024-02-06T12:45:45.966Z,15.20
2024-02-06T12:48:14.060Z,15.20
2024-02-06T12:50:43.776Z,15.20
2024-02-06T12:53:11.311Z,15.30
2024-02-06T12:55:41.738Z,15.30
2024-02-06T12:58:09.502Z,15.30
2024-02-06T13:00:37.407Z,15.30
2024-02-06T13:03:05.725Z,15.30
2024-02-06T13:05:37.073Z,15.30
2024-02-06T13:08:14.056Z,15.30
2024-02-06T13:10:42.368Z,15.30
2024-02-06T13:13:10.468Z,15.30
2024-02-06T13:15:38.151Z,15.30
2024-02-06T13:18:06.282Z,15.30
2024-02-06T13:20:39.325Z,15.40
2024-02-06T13:23:12.481Z,15.40
2024-02-06T13:25:40.414Z,15.50
2024-02-06T13:28:08.674Z,15.60
2024-02-06T13:30:38.024Z,15.60
2024-02-06T13:33:07.754Z,15.60
2024-02-06T13:35:35.623Z,15.60
2024-02-06T13:38:05.520Z,15.60
2024-02-06T13:40:33.929Z,15.60
2024-02-06T13:43:01.592Z,15.60
2024-02-06T13:45:29.059Z,15.50
2024-02-06T13:47:57.096Z,15.50
2024-02-06T13:50:25.214Z,15.40
2024-02-06T13:52:52.382Z,15.40
2024-02-06T13:55:20.898Z,15.30
2024-02-06T13:57:48.858Z,15.30
2024-02-06T14:00:16.202Z,15.30
2024-02-06T14:02:44.178Z,15.20
2024-02-06T14:05:12.785Z,15.20
2024-02-06T14:07:40.429Z,15.10
2024-02-06T14:10:09.083Z,15.10
2024-02-06T14:12:44.539Z,15.10
2024-02-06T14:15:18.722Z,15.10
2024-02-06T14:17:47.928Z,15.10
2024-02-06T14:20:16.973Z,15.10
2024-02-06T14:22:46.224Z,15.00
2024-02-06T14:25:13.988Z,15.00
2024-02-06T14:27:42.003Z,15.00
2024-02-06T14:30:10.150Z,15.00
2024-02-06T14:32:37.883Z,15.00
2024-02-06T14:35:06.613Z,15.00
2024-02-06T14:37:34.013Z,15.00
2024-02-06T14:40:02.508Z,14.90
2024-02-06T14:42:31.681Z,14.90
2024-02-06T14:44:59.240Z,14.90
2024-02-06T14:47:26.727Z,14.90
2024-02-06T14:49:54.281Z,14.80
2024-02-06T14:52:21.860Z,14.80
2024-02-06T14:54:50.406Z,14.70
2024-02-06T14:57:17.867Z,14.70
2024-02-06T14:59:45.233Z,14.70
2024-02-06T15:02:14.009Z,14.70
2024-02-06T15:04:41.591Z,14.70
2024-02-06T15:07:09.491Z,14.60
2024-02-06T15:09:38.291Z,14.60
2024-02-06T15:12:06.261Z,14.60
2024-02-06T15:14:34.054Z,14.50
2024-02-06T15:17:01.704Z,14.50
2024-02-06T15:19:29.287Z,14.40
2024-02-06T15:21:57.490Z,14.40
2024-02-06T15:24:26.228Z,14.40
2024-02-06T15:26:57.670Z,14.30
2024-02-06T15:29:25.905Z,14.30
2024-02-06T15:31:53.600Z,14.20
2024-02-06T15:34:21.578Z,14.20
2024-02-06T15:36:49.757Z,14.10
2024-02-06T15:39:17.391Z,14.00
2024-02-06T15:41:44.695Z,13.90
2024-02-06T15:44:14.339Z,13.90
2024-02-06T15:46:43.366Z,13.80
2024-02-06T15:49:11.085Z,13.80
2024-02-06T15:51:38.672Z,13.70
2024-02-06T15:54:09.595Z,13.60
2024-02-06T15:58:13.318Z,13.60
2024-02-06T16:00:44.367Z,13.50
2024-02-06T16:03:12.606Z,13.40
2024-02-06T16:05:41.131Z,13.40
2024-02-06T16:08:23.072Z,13.30
2024-02-06T16:11:05.708Z,13.20
2024-02-06T16:13:42.740Z,13.20
2024-02-06T16:16:20.996Z,13.10
2024-02-06T16:18:49.859Z,13.00
2024-02-06T16:21:20.352Z,12.90
2024-02-06T16:23:50.857Z,12.80
2024-02-06T16:26:19.811Z,12.70
2024-02-06T16:28:50.203Z,12.70
2024-02-06T16:31:20.967Z,12.60
2024-02-06T16:33:53.846Z,12.50
2024-02-06T16:36:23.079Z,12.40
2024-02-06T16:38:52.425Z,12.40
2024-02-06T16:41:21.848Z,12.30
2024-02-06T16:43:53.504Z,12.30
2024-02-06T16:46:28.225Z,12.20
2024-02-06T16:49:05.022Z,12.20
2024-02-06T16:51:39.585Z,12.10
2024-02-06T16:54:07.542Z,12.10
2024-02-06T16:56:47.206Z,12.00
2024-02-06T16:59:18.525Z,11.90
2024-02-06T17:01:52.440Z,11.90
2024-02-06T17:04:21.697Z,11.80
2024-02-06T17:06:49.495Z,11.80
2024-02-06T17:09:23.292Z,11.80
2024-02-06T17:11:51.530Z,11.70
2024-02-06T17:14:19.973Z,11.70
2024-02-06T17:16:49.201Z,11.60
2024-02-06T17:19:18.294Z,11.60
2024-02-06T17:21:46.716Z,11.50
2024-02-06T17:24:17.714Z,11.50
2024-02-06T17:26:45.494Z,11.40
2024-02-06T17:29:13.005Z,11.40
2024-02-06T17:31:41.985Z,11.40
2024-02-06T17:34:18.650Z,11.30
2024-02-06T17:36:49.998Z,11.30
2024-02-06T17:39:22.845Z,11.30
2024-02-06T17:41:53.747Z,11.20
2024-02-06T17:44:24.381Z,11.10
2024-02-06T17:46:52.515Z,11.10
2024-02-06T17:49:22.866Z,11.00
2024-02-06T17:51:55.502Z,11.00
2024-02-06T17:54:26.441Z,10.90
2024-02-06T17:56:54.375Z,10.90
2024-02-06T17:59:22.114Z,10.90
2024-02-06T18:01:49.711Z,10.90
2024-02-06T18:04:18.562Z,10.90
2024-02-06T18:06:46.305Z,10.80
2024-02-06T18:09:16.726Z,10.80
2024-02-06T18:11:44.673Z,10.80
2024-02-06T18:14:11.986Z,10.80
2024-02-06T18:17:03.283Z,10.80
2024-02-06T18:19:32.261Z,10.70
2024-02-06T18:22:02.366Z,10.70
2024-02-06T18:24:30.275Z,10.70
2024-02-06T18:27:04.390Z,10.60
2024-02-06T18:33:07.575Z,10.60
2024-02-06T18:35:41.448Z,10.50
2024-02-06T18:38:10.866Z,10.50
2024-02-06T18:40:39.729Z,10.50
2024-02-06T18:43:07.128Z,10.50
2024-02-06T18:45:42.635Z,10.40
2024-02-06T18:48:13.894Z,10.40
2024-02-06T18:50:51.605Z,10.40
2024-02-06T18:53:19.689Z,10.40
2024-02-06T18:55:59.532Z,10.40
2024-02-06T18:58:31.884Z,10.40
2024-02-06T19:01:03.500Z,10.30
2024-02-06T19:03:31.946Z,10.30
2024-02-06T19:06:03.137Z,10.30
2024-02-06T19:08:36.972Z,10.30
2024-02-06T19:11:08.966Z,10.30
2024-02-06T19:13:37.151Z,10.30
2024-02-06T19:16:08.708Z,10.30
2024-02-06T19:18:43.196Z,10.20
2024-02-06T19:21:11.561Z,10.30
2024-02-06T19:23:47.876Z,10.20
2024-02-06T19:26:23.864Z,10.20
2024-02-06T19:28:52.442Z,10.20
2024-02-06T19:31:20.831Z,10.20
2024-02-06T19:33:55.309Z,10.20
2024-02-06T19:36:28.329Z,10.20
2024-02-06T19:38:59.783Z,10.30
2024-02-06T19:41:32.520Z,10.20
2024-02-06T19:44:04.377Z,10.30
2024-02-06T19:46:32.569Z,10.20
2024-02-06T19:51:52.293Z,10.20
2024-02-06T19:54:20.447Z,10.20
2024-02-06T19:56:49.015Z,10.10
2024-02-06T19:59:17.411Z,10.10
2024-02-06T20:01:46.084Z,10.10
2024-02-06T20:04:19.160Z,10.00
2024-02-06T20:06:49.164Z,10.00
2024-02-06T20:09:17.233Z,10.00
2024-02-06T20:11:55.878Z,9.90
2024-02-06T20:14:24.265Z,9.90
2024-02-06T20:16:52.392Z,9.80
2024-02-06T20:19:29.675Z,9.90
2024-02-06T20:21:58.335Z,9.80
2024-02-06T20:24:27.329Z,9.80
2024-02-06T20:26:55.478Z,9.80
2024-02-06T20:29:22.892Z,9.80
2024-02-06T20:31:50.671Z,9.70
2024-02-06T20:34:18.476Z,9.70
2024-02-06T20:36:46.917Z,9.60
2024-02-06T20:39:14.728Z,9.70
2024-02-06T20:41:42.102Z,9.60
2024-02-06T20:44:12.517Z,9.60
2024-02-06T20:46:41.287Z,9.50
2024-02-06T20:49:12.748Z,9.50
2024-02-06T20:51:41.080Z,9.50
2024-02-06T20:54:08.572Z,9.40
2024-02-06T20:56:36.323Z,9.40
2024-02-06T20:59:05.512Z,9.30
2024-02-06T21:01:34.650Z,9.30
2024-02-06T21:04:04.021Z,9.30
2024-02-06T21:06:33.432Z,9.30
2024-02-06T21:09:05.059Z,9.30
2024-02-06T21:11:32.605Z,9.20
2024-02-06T21:14:02.108Z,9.20
2024-02-06T21:16:30.412Z,9.20
2024-02-06T21:18:58.567Z,9.20
2024-02-06T21:21:35.683Z,9.20
2024-02-06T21:24:02.889Z,9.30
2024-02-06T21:26:30.180Z,9.30
2024-02-06T21:28:58.001Z,9.30
2024-02-06T21:31:29.726Z,9.30
2024-02-06T21:34:01.557Z,9.20
2024-02-06T21:36:40.558Z,9.20
2024-02-06T21:39:09.105Z,9.20
2024-02-06T21:41:38.362Z,9.20
2024-02-06T21:44:05.894Z,9.20
2024-02-06T21:46:34.409Z,9.10
2024-02-06T21:49:05.565Z,9.10
2024-02-06T21:51:37.330Z,9.10
2024-02-06T21:54:05.462Z,9.10
2024-02-06T21:56:33.571Z,9.10
2024-02-06T21:59:05.271Z,9.10
2024-02-06T22:01:37.673Z,9.10
2024-02-06T22:04:11.174Z,9.10
2024-02-06T22:06:48.678Z,9.10
2024-02-06T22:09:18.701Z,9.10
2024-02-06T22:11:48.601Z,9.10
2024-02-06T22:14:22.602Z,9.10
2024-02-06T22:16:51.580Z,9.00
2024-02-06T22:19:26.376Z,9.00
2024-02-06T22:21:54.762Z,9.00
2024-02-06T22:24:27.973Z,8.90
2024-02-06T22:26:55.614Z,8.90
2024-02-06T22:29:25.171Z,8.90
2024-02-06T22:31:53.341Z,8.90
2024-02-06T22:34:21.164Z,8.80
2024-02-06T22:36:51.031Z,8.80
2024-02-06T22:39:18.900Z,8.80
2024-02-06T22:41:52.782Z,8.80
2024-02-06T22:44:25.782Z,8.80
2024-02-06T22:46:53.647Z,8.80
2024-02-06T22:49:21.347Z,8.70
2024-02-06T22:51:48.794Z,8.70
2024-02-06T22:54:19.639Z,8.60
2024-02-06T22:56:51.708Z,8.60
2024-02-06T22:59:23.904Z,8.60
2024-02-06T23:01:51.596Z,8.60
2024-02-06T23:04:23.925Z,8.50
2024-02-06T23:06:55.021Z,8.50
2024-02-06T23:09:23.367Z,8.50
2024-02-06T23:11:56.008Z,8.40
2024-02-06T23:14:24.039Z,8.40
2024-02-06T23:16:52.755Z,8.40
2024-02-06T23:19:21.613Z,8.30
2024-02-06T23:21:51.173Z,8.30
2024-02-06T23:24:19.022Z,8.20
2024-02-06T23:26:52.154Z,8.20
2024-02-06T23:29:20.351Z,8.20
2024-02-06T23:31:48.206Z,8.10
2024-02-06T23:34:15.854Z,8.10
2024-02-06T23:36:43.789Z,8.00
2024-02-06T23:39:15.967Z,8.00
2024-02-06T23:41:48.404Z,8.00
2024-02-06T23:44:23.379Z,7.90
2024-02-06T23:46:50.959Z,7.90
2024-02-06T23:49:28.500Z,7.90
2024-02-06T23:51:55.983Z,7.90
2024-02-06T23:54:25.426Z,7.90
2024-02-06T23:56:56.163Z,7.90
2024-02-06T23:59:24.957Z,7.90
